Temerloh, Malaysia

5:56 AM MYT on October 21, 2014 (GMT +0800)
Kuantan | Change Station
CLOSE
Current Station
Airport
Location: Kuantan,
Elevation: 52 ft
Nearby Weather Stations

Elev 52 ft 3.78 °N, 103.21 °E | Updated 56 minutes ago

Haze
Haze
75 °F
Feels Like 75 °F
N
0
Wind Variable Wind from North

Today
High -- | Low -- °F
--% Chance of Precip.
Yesterday
High -- | Low -- °F
Precip. -- in
6:54 AM 6:55 PM
Waning Crescent, 9% visible
Pressure 29.83 in
Visibility 2.5 miles
Clouds Few 1000 ft
Scattered Clouds 16000 ft
Mostly Cloudy 28000 ft
Dew Point 73 °F
Humidity 94%
Rainfall 0.00 in
Snow Depth Not available.
UV 0 out of 12
Pollen Not available.
Air Quality Not available.
Flu Activity Not available.
METAR WMKD 202100Z 00000KT 4000 HZ FEW010 SCT160 BKN280 24/23 Q1010 NOSIG

More Conditions Fewer Conditions

Pressure 29.83 in
Visibility 2.5 miles
Clouds Few 1000 ft
Scattered Clouds 16000 ft
Mostly Cloudy 28000 ft
Dew Point 73 °F
Humidity 94%
Rainfall 0.00 in
Snow Depth Not available.
UV 0 out of 12
Pollen Not available.
Air Quality Not available.
Flu Activity Not available.
METAR WMKD 202100Z 00000KT 4000 HZ FEW010 SCT160 BKN280 24/23 Q1010 NOSIG

More Conditions Fewer Conditions

10-Day Weather Forecast

Almanac

Astronomy

Oct. 21, 2014 Rise Set
Actual Time 6:54 AM MYT 6:55 PM MYT
Civil Twilight 6:33 AM MYT 7:16 PM MYT
Nautical Twilight 6:08 AM MYT 7:41 PM MYT
Astronomical Twilight 5:44 AM MYT 8:05 PM MYT
Moon 4:43 AM MYT (10/21) 5:04 PM MYT (10/21)
Length of Visible Light 12h 43m
Length of Day
12h 01m
Tomorrow will be 0m 10s shorter.
Waning Crescent, 9% of the Moon is Illuminated
Oct 20
Waning Crescent
Oct 23
New
Oct 30
First Quarter
Nov 6
Full
Nov 14
Last Quarter

Yesterday's Extremes

Country Highs Country Lows

Community

WunderPhotos

Upload Photos

1,763,527 photos uploaded!

WunderBlogs® & News

Nearby

Snow Depth

Not available.

Earthquake Activity

City Distance Mag. Time & Date
No recent earthquake activity has been reported nearby.
Minimum magnitude displayed is 2.5.

Coastal Water Temperatures

Place Temperature
No Stations Reporting

Nearby Weather Stations